Terminal Aerodrome Forecast
Issued by NWS Brownsville, TX

Home | Current Version | Previous Version | Text Only | Print | Product List | Glossary On
Versions: 1 2 3 4 5 6 7 8 9 10 11 12 13 14 15 16 17 18 19 20 21 22 23
000
FTUS44 KBRO 010500
TAFBRO
TAF
KBRO 010520Z 0106/0206 16004KT P6SM SKC
     FM010900 16004KT 5SM BR BKN015
      TEMPO 0111/0114 3/4SM BR VV004
     FM011500 15010G15KT P6SM SCT040
     FM020300 14010KT P6SM BKN015=

USA.gov is the U.S. government's official web portal to all federal, state and local government web resources and services.